sensor_id;sensor_type;location;lat;lon;timestamp;temperature;humidity
9768;DHT22;4923;52.520;13.494;2023-02-16T00:02:31;2.50;92.90
9768;DHT22;4923;52.520;13.494;2023-02-16T00:05:23;2.40;93.50
9768;DHT22;4923;52.520;13.494;2023-02-16T00:08:10;2.40;95.90
9768;DHT22;4923;52.520;13.494;2023-02-16T00:10:57;2.40;98.10
9768;DHT22;4923;52.520;13.494;2023-02-16T00:14:03;2.40;98.80
9768;DHT22;4923;52.520;13.494;2023-02-16T00:16:50;2.40;99.90
9768;DHT22;4923;52.520;13.494;2023-02-16T00:19:40;2.30;99.90
9768;DHT22;4923;52.520;13.494;2023-02-16T00:22:27;2.30;99.90
9768;DHT22;4923;52.520;13.494;2023-02-16T00:25:14;2.30;99.90
9768;DHT22;4923;52.520;13.494;2023-02-16T00:28:02;2.20;99.90
9768;DHT22;4923;52.520;13.494;2023-02-16T00:30:50;2.30;99.90
9768;DHT22;4923;52.520;13.494;2023-02-16T00:33:37;2.30;99.90
9768;DHT22;4923;52.520;13.494;2023-02-16T00:36:25;2.20;99.90
9768;DHT22;4923;52.520;13.494;2023-02-16T00:39:12;2.20;99.90
9768;DHT22;4923;52.520;13.494;2023-02-16T00:42:02;2.20;99.90
9768;DHT22;4923;52.520;13.494;2023-02-16T00:44:51;2.20;99.90
9768;DHT22;4923;52.520;13.494;2023-02-16T00:47:39;2.30;99.90
9768;DHT22;4923;52.520;13.494;2023-02-16T00:50:29;2.30;99.90
9768;DHT22;4923;52.520;13.494;2023-02-16T00:53:17;2.20;99.90
9768;DHT22;4923;52.520;13.494;2023-02-16T00:56:05;2.20;99.90
9768;DHT22;4923;52.520;13.494;2023-02-16T00:58:53;2.20;99.90
9768;DHT22;4923;52.520;13.494;2023-02-16T01:01:40;2.20;99.90
9768;DHT22;4923;52.520;13.494;2023-02-16T01:04:27;2.20;99.90
9768;DHT22;4923;52.520;13.494;2023-02-16T01:07:15;2.20;99.90
9768;DHT22;4923;52.520;13.494;2023-02-16T01:10:23;2.20;99.90
9768;DHT22;4923;52.520;13.494;2023-02-16T01:13:38;2.20;99.90
9768;DHT22;4923;52.520;13.494;2023-02-16T01:16:34;2.20;99.90
9768;DHT22;4923;52.520;13.494;2023-02-16T01:19:21;2.20;99.90
9768;DHT22;4923;52.520;13.494;2023-02-16T01:22:08;2.20;99.90
9768;DHT22;4923;52.520;13.494;2023-02-16T01:24:55;2.20;99.90
9768;DHT22;4923;52.520;13.494;2023-02-16T01:27:44;2.20;99.90
9768;DHT22;4923;52.520;13.494;2023-02-16T01:30:31;2.20;99.90
9768;DHT22;4923;52.520;13.494;2023-02-16T01:33:17;2.20;99.90
9768;DHT22;4923;52.520;13.494;2023-02-16T01:36:05;2.20;99.90
9768;DHT22;4923;52.520;13.494;2023-02-16T01:38:52;2.10;99.90
9768;DHT22;4923;52.520;13.494;2023-02-16T01:42:09;2.10;99.90
9768;DHT22;4923;52.520;13.494;2023-02-16T01:45:02;2.10;99.90
9768;DHT22;4923;52.520;13.494;2023-02-16T01:47:52;2.10;99.90
9768;DHT22;4923;52.520;13.494;2023-02-16T01:50:45;2.10;99.90
9768;DHT22;4923;52.520;13.494;2023-02-16T01:53:37;2.00;99.90
9768;DHT22;4923;52.520;13.494;2023-02-16T01:56:30;2.00;99.90
9768;DHT22;4923;52.520;13.494;2023-02-16T01:59:28;1.90;99.90
9768;DHT22;4923;52.520;13.494;2023-02-16T02:02:19;1.90;99.90
9768;DHT22;4923;52.520;13.494;2023-02-16T02:05:17;1.90;99.90
9768;DHT22;4923;52.520;13.494;2023-02-16T02:08:27;1.90;99.90
9768;DHT22;4923;52.520;13.494;2023-02-16T02:11:23;1.90;99.90
9768;DHT22;4923;52.520;13.494;2023-02-16T02:14:13;1.80;99.90
9768;DHT22;4923;52.520;13.494;2023-02-16T02:17:04;1.80;99.90
9768;DHT22;4923;52.520;13.494;2023-02-16T02:20:00;1.80;99.90
9768;DHT22;4923;52.520;13.494;2023-02-16T02:23:10;1.80;99.90
9768;DHT22;4923;52.520;13.494;2023-02-16T02:26:40;1.70;99.90
9768;DHT22;4923;52.520;13.494;2023-02-16T02:29:55;1.80;99.90
9768;DHT22;4923;52.520;13.494;2023-02-16T02:32:53;1.80;99.90
9768;DHT22;4923;52.520;13.494;2023-02-16T02:35:47;1.80;99.90
9768;DHT22;4923;52.520;13.494;2023-02-16T02:38:39;1.70;99.90
9768;DHT22;4923;52.520;13.494;2023-02-16T02:41:36;1.70;99.90
9768;DHT22;4923;52.520;13.494;2023-02-16T02:44:46;1.70;99.90
9768;DHT22;4923;52.520;13.494;2023-02-16T02:47:38;1.70;99.90
9768;DHT22;4923;52.520;13.494;2023-02-16T02:50:36;1.60;99.90
9768;DHT22;4923;52.520;13.494;2023-02-16T02:53:23;1.60;99.90
9768;DHT22;4923;52.520;13.494;2023-02-16T02:56:11;1.60;99.90
9768;DHT22;4923;52.520;13.494;2023-02-16T02:59:18;1.60;99.90
9768;DHT22;4923;52.520;13.494;2023-02-16T03:02:23;1.60;99.90
9768;DHT22;4923;52.520;13.494;2023-02-16T03:05:12;1.60;99.90
9768;DHT22;4923;52.520;13.494;2023-02-16T03:08:01;1.70;99.90
9768;DHT22;4923;52.520;13.494;2023-02-16T03:10:54;1.60;99.90
9768;DHT22;4923;52.520;13.494;2023-02-16T03:14:03;1.60;99.90
9768;DHT22;4923;52.520;13.494;2023-02-16T03:16:54;1.60;99.90
9768;DHT22;4923;52.520;13.494;2023-02-16T03:20:02;1.60;99.90
9768;DHT22;4923;52.520;13.494;2023-02-16T03:23:09;1.50;99.90
9768;DHT22;4923;52.520;13.494;2023-02-16T03:26:15;1.50;99.90
9768;DHT22;4923;52.520;13.494;2023-02-16T03:29:21;1.50;99.90
9768;DHT22;4923;52.520;13.494;2023-02-16T03:32:10;1.50;99.90
9768;DHT22;4923;52.520;13.494;2023-02-16T03:34:57;1.50;99.90
9768;DHT22;4923;52.520;13.494;2023-02-16T03:37:44;1.40;99.90
9768;DHT22;4923;52.520;13.494;2023-02-16T03:40:33;1.40;99.90
9768;DHT22;4923;52.520;13.494;2023-02-16T03:43:24;1.40;99.90
9768;DHT22;4923;52.520;13.494;2023-02-16T03:46:11;1.40;99.90
9768;DHT22;4923;52.520;13.494;2023-02-16T03:48:59;1.40;99.90
9768;DHT22;4923;52.520;13.494;2023-02-16T03:51:47;1.40;99.90
9768;DHT22;4923;52.520;13.494;2023-02-16T03:54:33;1.40;99.90
9768;DHT22;4923;52.520;13.494;2023-02-16T03:57:20;1.40;99.90
9768;DHT22;4923;52.520;13.494;2023-02-16T04:00:08;1.30;99.90
9768;DHT22;4923;52.520;13.494;2023-02-16T04:02:55;1.30;99.90
9768;DHT22;4923;52.520;13.494;2023-02-16T04:05:44;1.30;99.90
9768;DHT22;4923;52.520;13.494;2023-02-16T04:08:31;1.30;99.90
9768;DHT22;4923;52.520;13.494;2023-02-16T04:11:18;1.30;99.90
9768;DHT22;4923;52.520;13.494;2023-02-16T04:14:22;1.30;99.90
9768;DHT22;4923;52.520;13.494;2023-02-16T04:17:09;1.30;99.90
9768;DHT22;4923;52.520;13.494;2023-02-16T04:19:56;1.20;99.90
9768;DHT22;4923;52.520;13.494;2023-02-16T04:22:44;1.30;99.90
9768;DHT22;4923;52.520;13.494;2023-02-16T04:25:31;1.30;99.90
9768;DHT22;4923;52.520;13.494;2023-02-16T04:28:18;1.30;99.90
9768;DHT22;4923;52.520;13.494;2023-02-16T04:31:05;1.30;99.90
9768;DHT22;4923;52.520;13.494;2023-02-16T04:33:52;1.30;99.90
9768;DHT22;4923;52.520;13.494;2023-02-16T04:36:39;1.30;99.90
9768;DHT22;4923;52.520;13.494;2023-02-16T04:39:27;1.30;99.90
9768;DHT22;4923;52.520;13.494;2023-02-16T04:42:14;1.30;99.90
9768;DHT22;4923;52.520;13.494;2023-02-16T04:45:01;1.20;99.90
9768;DHT22;4923;52.520;13.494;2023-02-16T04:47:47;1.20;99.90
9768;DHT22;4923;52.520;13.494;2023-02-16T04:50:34;1.20;99.90
9768;DHT22;4923;52.520;13.494;2023-02-16T04:53:21;1.20;99.90
9768;DHT22;4923;52.520;13.494;2023-02-16T04:56:10;1.20;99.90
9768;DHT22;4923;52.520;13.494;2023-02-16T04:58:58;1.20;99.90
9768;DHT22;4923;52.520;13.494;2023-02-16T05:01:45;1.10;99.90
9768;DHT22;4923;52.520;13.494;2023-02-16T05:04:32;1.10;99.90
9768;DHT22;4923;52.520;13.494;2023-02-16T05:07:19;1.10;99.90
9768;DHT22;4923;52.520;13.494;2023-02-16T05:10:06;1.10;99.90
9768;DHT22;4923;52.520;13.494;2023-02-16T05:12:55;1.10;99.90
9768;DHT22;4923;52.520;13.494;2023-02-16T05:15:59;1.00;99.90
9768;DHT22;4923;52.520;13.494;2023-02-16T05:18:46;1.00;99.90
9768;DHT22;4923;52.520;13.494;2023-02-16T05:21:33;1.00;99.90
9768;DHT22;4923;52.520;13.494;2023-02-16T05:24:20;1.00;99.90
9768;DHT22;4923;52.520;13.494;2023-02-16T05:27:10;1.00;99.90
9768;DHT22;4923;52.520;13.494;2023-02-16T05:29:59;0.90;99.90
9768;DHT22;4923;52.520;13.494;2023-02-16T05:32:46;0.90;99.90
9768;DHT22;4923;52.520;13.494;2023-02-16T05:35:33;0.90;99.90
9768;DHT22;4923;52.520;13.494;2023-02-16T05:38:20;0.90;99.90
9768;DHT22;4923;52.520;13.494;2023-02-16T05:41:07;0.90;99.90
9768;DHT22;4923;52.520;13.494;2023-02-16T05:43:56;0.90;99.90
9768;DHT22;4923;52.520;13.494;2023-02-16T05:46:45;0.90;99.90
9768;DHT22;4923;52.520;13.494;2023-02-16T05:49:32;0.90;99.90
9768;DHT22;4923;52.520;13.494;2023-02-16T05:52:18;0.90;99.90
9768;DHT22;4923;52.520;13.494;2023-02-16T05:55:05;0.90;99.90
9768;DHT22;4923;52.520;13.494;2023-02-16T05:57:52;0.90;99.90
9768;DHT22;4923;52.520;13.494;2023-02-16T06:00:39;0.80;99.90
9768;DHT22;4923;52.520;13.494;2023-02-16T06:03:27;0.80;99.90
9768;DHT22;4923;52.520;13.494;2023-02-16T06:06:14;0.80;99.90
9768;DHT22;4923;52.520;13.494;2023-02-16T06:09:02;0.80;99.90
9768;DHT22;4923;52.520;13.494;2023-02-16T06:11:49;0.80;99.90
9768;DHT22;4923;52.520;13.494;2023-02-16T06:14:36;0.80;99.90
9768;DHT22;4923;52.520;13.494;2023-02-16T06:17:22;0.80;99.90
9768;DHT22;4923;52.520;13.494;2023-02-16T06:20:11;0.80;99.90
9768;DHT22;4923;52.520;13.494;2023-02-16T06:22:58;0.70;99.90
9768;DHT22;4923;52.520;13.494;2023-02-16T06:25:49;0.80;99.90
9768;DHT22;4923;52.520;13.494;2023-02-16T06:28:36;0.90;99.90
9768;DHT22;4923;52.520;13.494;2023-02-16T06:31:23;0.90;99.90
9768;DHT22;4923;52.520;13.494;2023-02-16T06:34:10;0.90;99.90
9768;DHT22;4923;52.520;13.494;2023-02-16T06:36:58;1.00;99.90
9768;DHT22;4923;52.520;13.494;2023-02-16T06:39:45;1.00;99.90
9768;DHT22;4923;52.520;13.494;2023-02-16T06:42:32;1.10;99.90
9768;DHT22;4923;52.520;13.494;2023-02-16T06:45:19;1.10;99.90
9768;DHT22;4923;52.520;13.494;2023-02-16T06:48:06;1.10;99.90
9768;DHT22;4923;52.520;13.494;2023-02-16T06:50:52;1.20;99.90
9768;DHT22;4923;52.520;13.494;2023-02-16T06:53:41;1.30;99.90
9768;DHT22;4923;52.520;13.494;2023-02-16T06:56:28;1.30;99.90
9768;DHT22;4923;52.520;13.494;2023-02-16T06:59:15;1.40;99.90
9768;DHT22;4923;52.520;13.494;2023-02-16T07:02:01;1.40;99.90
9768;DHT22;4923;52.520;13.494;2023-02-16T07:04:48;1.50;99.90
9768;DHT22;4923;52.520;13.494;2023-02-16T07:07:35;1.60;99.90
9768;DHT22;4923;52.520;13.494;2023-02-16T07:10:23;1.70;99.90
9768;DHT22;4923;52.520;13.494;2023-02-16T07:13:10;1.80;99.90
9768;DHT22;4923;52.520;13.494;2023-02-16T07:15:57;1.80;99.90
9768;DHT22;4923;52.520;13.494;2023-02-16T07:18:44;2.00;99.90
9768;DHT22;4923;52.520;13.494;2023-02-16T07:21:32;2.10;99.90
9768;DHT22;4923;52.520;13.494;2023-02-16T07:24:18;2.20;99.90
9768;DHT22;4923;52.520;13.494;2023-02-16T07:27:06;2.20;99.90
9768;DHT22;4923;52.520;13.494;2023-02-16T07:29:53;2.30;99.90
9768;DHT22;4923;52.520;13.494;2023-02-16T07:32:40;2.40;99.90
9768;DHT22;4923;52.520;13.494;2023-02-16T07:35:27;2.40;99.90
9768;DHT22;4923;52.520;13.494;2023-02-16T07:38:14;2.50;99.90
9768;DHT22;4923;52.520;13.494;2023-02-16T07:41:01;2.60;99.90
9768;DHT22;4923;52.520;13.494;2023-02-16T07:43:49;2.60;99.90
9768;DHT22;4923;52.520;13.494;2023-02-16T07:46:36;2.70;90.00
9768;DHT22;4923;52.520;13.494;2023-02-16T07:49:23;2.70;65.20
9768;DHT22;4923;52.520;13.494;2023-02-16T07:52:10;2.70;41.00
9768;DHT22;4923;52.520;13.494;2023-02-16T07:54:57;2.80;24.20
9768;DHT22;4923;52.520;13.494;2023-02-16T07:57:44;2.80;35.40
9768;DHT22;4923;52.520;13.494;2023-02-16T08:00:35;3.00;8.30
9768;DHT22;4923;52.520;13.494;2023-02-16T08:03:22;3.10;1.00
9768;DHT22;4923;52.520;13.494;2023-02-16T08:06:09;3.20;1.00
9768;DHT22;4923;52.520;13.494;2023-02-16T08:08:56;3.30;1.00
9768;DHT22;4923;52.520;13.494;2023-02-16T08:11:43;3.40;1.00
9768;DHT22;4923;52.520;13.494;2023-02-16T08:14:30;3.50;1.00
9768;DHT22;4923;52.520;13.494;2023-02-16T08:17:18;3.60;1.00
9768;DHT22;4923;52.520;13.494;2023-02-16T08:20:07;3.60;1.00
9768;DHT22;4923;52.520;13.494;2023-02-16T08:22:54;3.70;1.00
9768;DHT22;4923;52.520;13.494;2023-02-16T08:25:42;3.80;1.00
9768;DHT22;4923;52.520;13.494;2023-02-16T08:28:28;3.90;1.00
9768;DHT22;4923;52.520;13.494;2023-02-16T08:31:17;4.00;1.00
9768;DHT22;4923;52.520;13.494;2023-02-16T08:34:06;4.00;1.00
9768;DHT22;4923;52.520;13.494;2023-02-16T08:36:54;4.00;1.00
9768;DHT22;4923;52.520;13.494;2023-02-16T08:39:42;4.10;1.00
9768;DHT22;4923;52.520;13.494;2023-02-16T08:42:28;4.20;1.00
9768;DHT22;4923;52.520;13.494;2023-02-16T08:45:15;4.30;1.00
9768;DHT22;4923;52.520;13.494;2023-02-16T08:48:03;4.40;1.00
9768;DHT22;4923;52.520;13.494;2023-02-16T08:50:52;4.50;1.00
9768;DHT22;4923;52.520;13.494;2023-02-16T08:53:38;4.70;1.00
9768;DHT22;4923;52.520;13.494;2023-02-16T08:56:26;4.80;1.00
9768;DHT22;4923;52.520;13.494;2023-02-16T08:59:15;4.90;1.00
9768;DHT22;4923;52.520;13.494;2023-02-16T09:02:03;5.00;1.00
9768;DHT22;4923;52.520;13.494;2023-02-16T09:04:50;5.10;1.00
9768;DHT22;4923;52.520;13.494;2023-02-16T09:07:38;5.20;1.00
9768;DHT22;4923;52.520;13.494;2023-02-16T09:10:26;5.30;1.00
9768;DHT22;4923;52.520;13.494;2023-02-16T09:13:12;5.40;1.00
9768;DHT22;4923;52.520;13.494;2023-02-16T09:16:01;5.50;1.00
9768;DHT22;4923;52.520;13.494;2023-02-16T09:18:50;5.70;1.00
9768;DHT22;4923;52.520;13.494;2023-02-16T09:21:37;5.80;1.00
9768;DHT22;4923;52.520;13.494;2023-02-16T09:24:26;6.00;1.00
9768;DHT22;4923;52.520;13.494;2023-02-16T09:27:13;6.10;1.00
9768;DHT22;4923;52.520;13.494;2023-02-16T09:30:00;6.20;1.00
9768;DHT22;4923;52.520;13.494;2023-02-16T09:32:47;6.40;1.00
9768;DHT22;4923;52.520;13.494;2023-02-16T09:35:34;6.50;1.00
9768;DHT22;4923;52.520;13.494;2023-02-16T09:38:23;6.70;1.00
9768;DHT22;4923;52.520;13.494;2023-02-16T09:41:20;6.80;1.00
9768;DHT22;4923;52.520;13.494;2023-02-16T09:44:16;7.00;1.00
9768;DHT22;4923;52.520;13.494;2023-02-16T09:47:10;7.10;1.00
9768;DHT22;4923;52.520;13.494;2023-02-16T09:50:00;7.30;1.00
9768;DHT22;4923;52.520;13.494;2023-02-16T09:52:51;7.50;1.00
9768;DHT22;4923;52.520;13.494;2023-02-16T09:55:42;7.60;1.00
9768;DHT22;4923;52.520;13.494;2023-02-16T09:58:40;7.80;1.00
9768;DHT22;4923;52.520;13.494;2023-02-16T10:01:33;8.00;1.00
9768;DHT22;4923;52.520;13.494;2023-02-16T10:04:29;8.20;1.00
9768;DHT22;4923;52.520;13.494;2023-02-16T10:07:29;8.30;1.00
9768;DHT22;4923;52.520;13.494;2023-02-16T10:10:21;8.40;1.00
9768;DHT22;4923;52.520;13.494;2023-02-16T10:13:15;8.50;1.00
9768;DHT22;4923;52.520;13.494;2023-02-16T10:16:11;8.60;1.00
9768;DHT22;4923;52.520;13.494;2023-02-16T10:19:01;8.80;1.00
9768;DHT22;4923;52.520;13.494;2023-02-16T10:21:54;8.90;1.00
9768;DHT22;4923;52.520;13.494;2023-02-16T10:24:46;9.00;1.00
9768;DHT22;4923;52.520;13.494;2023-02-16T10:27:38;9.10;1.00
9768;DHT22;4923;52.520;13.494;2023-02-16T10:30:30;9.30;1.00
9768;DHT22;4923;52.520;13.494;2023-02-16T10:33:27;9.20;1.00
9768;DHT22;4923;52.520;13.494;2023-02-16T10:36:25;9.20;1.00
9768;DHT22;4923;52.520;13.494;2023-02-16T10:39:23;9.20;1.00
9768;DHT22;4923;52.520;13.494;2023-02-16T10:42:17;9.20;1.00
9768;DHT22;4923;52.520;13.494;2023-02-16T10:45:19;9.30;1.00
9768;DHT22;4923;52.520;13.494;2023-02-16T10:48:07;9.40;1.00
9768;DHT22;4923;52.520;13.494;2023-02-16T10:50:59;9.40;1.00
9768;DHT22;4923;52.520;13.494;2023-02-16T10:53:49;9.50;1.00
9768;DHT22;4923;52.520;13.494;2023-02-16T10:56:48;9.70;1.00
9768;DHT22;4923;52.520;13.494;2023-02-16T10:59:38;9.90;1.00
9768;DHT22;4923;52.520;13.494;2023-02-16T11:02:27;9.90;1.00
9768;DHT22;4923;52.520;13.494;2023-02-16T11:05:43;9.90;1.00
9768;DHT22;4923;52.520;13.494;2023-02-16T11:08:46;9.90;1.00
9768;DHT22;4923;52.520;13.494;2023-02-16T11:11:36;10.00;1.00
9768;DHT22;4923;52.520;13.494;2023-02-16T11:14:26;10.20;1.00
9768;DHT22;4923;52.520;13.494;2023-02-16T11:17:15;10.30;1.00
9768;DHT22;4923;52.520;13.494;2023-02-16T11:20:04;10.50;1.00
9768;DHT22;4923;52.520;13.494;2023-02-16T11:22:51;10.60;1.00
9768;DHT22;4923;52.520;13.494;2023-02-16T11:25:40;10.60;1.00
9768;DHT22;4923;52.520;13.494;2023-02-16T11:28:29;10.60;1.00
9768;DHT22;4923;52.520;13.494;2023-02-16T11:31:23;10.60;1.00
9768;DHT22;4923;52.520;13.494;2023-02-16T11:34:13;10.60;1.00
9768;DHT22;4923;52.520;13.494;2023-02-16T11:37:04;10.60;1.00
9768;DHT22;4923;52.520;13.494;2023-02-16T11:39:55;10.90;1.00
9768;DHT22;4923;52.520;13.494;2023-02-16T11:42:46;11.20;1.00
9768;DHT22;4923;52.520;13.494;2023-02-16T11:45:34;11.50;1.00
9768;DHT22;4923;52.520;13.494;2023-02-16T11:48:25;11.60;1.00
9768;DHT22;4923;52.520;13.494;2023-02-16T11:51:14;11.60;1.00
9768;DHT22;4923;52.520;13.494;2023-02-16T11:54:05;11.60;1.00
9768;DHT22;4923;52.520;13.494;2023-02-16T11:57:03;11.70;1.00
9768;DHT22;4923;52.520;13.494;2023-02-16T11:59:51;11.60;1.00
9768;DHT22;4923;52.520;13.494;2023-02-16T12:06:09;11.70;1.00
9768;DHT22;4923;52.520;13.494;2023-02-16T12:09:07;11.90;1.00
9768;DHT22;4923;52.520;13.494;2023-02-16T12:12:02;11.90;1.00
9768;DHT22;4923;52.520;13.494;2023-02-16T12:15:00;11.80;1.00
9768;DHT22;4923;52.520;13.494;2023-02-16T12:18:01;11.80;1.00
9768;DHT22;4923;52.520;13.494;2023-02-16T12:20:55;11.80;1.00
9768;DHT22;4923;52.520;13.494;2023-02-16T12:23:53;11.70;1.00
9768;DHT22;4923;52.520;13.494;2023-02-16T12:26:47;11.80;1.00
9768;DHT22;4923;52.520;13.494;2023-02-16T12:29:40;11.70;1.00
9768;DHT22;4923;52.520;13.494;2023-02-16T12:32:54;11.70;1.00
9768;DHT22;4923;52.520;13.494;2023-02-16T12:35:57;11.80;1.00
9768;DHT22;4923;52.520;13.494;2023-02-16T12:38:54;11.70;1.00
9768;DHT22;4923;52.520;13.494;2023-02-16T12:41:50;11.70;1.00
9768;DHT22;4923;52.520;13.494;2023-02-16T12:44:41;11.90;1.00
9768;DHT22;4923;52.520;13.494;2023-02-16T12:47:35;11.80;1.00
9768;DHT22;4923;52.520;13.494;2023-02-16T12:50:26;11.80;1.00
9768;DHT22;4923;52.520;13.494;2023-02-16T12:53:18;11.90;1.00
9768;DHT22;4923;52.520;13.494;2023-02-16T12:56:13;11.90;1.00
9768;DHT22;4923;52.520;13.494;2023-02-16T12:59:12;11.90;1.00
9768;DHT22;4923;52.520;13.494;2023-02-16T13:02:04;11.80;1.00
9768;DHT22;4923;52.520;13.494;2023-02-16T13:04:58;11.80;1.00
9768;DHT22;4923;52.520;13.494;2023-02-16T13:07:53;11.70;1.00
9768;DHT22;4923;52.520;13.494;2023-02-16T13:10:51;11.70;1.00
9768;DHT22;4923;52.520;13.494;2023-02-16T13:13:41;11.70;1.00
9768;DHT22;4923;52.520;13.494;2023-02-16T13:16:35;11.80;1.00
9768;DHT22;4923;52.520;13.494;2023-02-16T13:19:24;11.80;1.00
9768;DHT22;4923;52.520;13.494;2023-02-16T13:22:29;11.90;1.00
9768;DHT22;4923;52.520;13.494;2023-02-16T13:32:39;12.30;1.00
9768;DHT22;4923;52.520;13.494;2023-02-16T13:35:42;12.40;1.00
9768;DHT22;4923;52.520;13.494;2023-02-16T13:39:12;12.50;1.00
9768;DHT22;4923;52.520;13.494;2023-02-16T13:42:26;12.50;1.00
9768;DHT22;4923;52.520;13.494;2023-02-16T13:45:19;12.60;1.00
9768;DHT22;4923;52.520;13.494;2023-02-16T13:48:12;12.70;1.00
9768;DHT22;4923;52.520;13.494;2023-02-16T13:51:02;12.70;1.00
9768;DHT22;4923;52.520;13.494;2023-02-16T13:53:52;12.70;1.00
9768;DHT22;4923;52.520;13.494;2023-02-16T13:56:40;12.80;1.00
9768;DHT22;4923;52.520;13.494;2023-02-16T13:59:58;12.80;1.00
9768;DHT22;4923;52.520;13.494;2023-02-16T14:03:01;12.80;1.00
9768;DHT22;4923;52.520;13.494;2023-02-16T14:05:50;12.70;1.00
9768;DHT22;4923;52.520;13.494;2023-02-16T14:08:37;12.70;1.00
9768;DHT22;4923;52.520;13.494;2023-02-16T14:11:24;12.70;1.00
9768;DHT22;4923;52.520;13.494;2023-02-16T14:14:25;12.70;1.00
9768;DHT22;4923;52.520;13.494;2023-02-16T14:17:21;12.60;1.00
9768;DHT22;4923;52.520;13.494;2023-02-16T14:23:27;12.70;1.00
9768;DHT22;4923;52.520;13.494;2023-02-16T14:26:19;12.80;1.00
9768;DHT22;4923;52.520;13.494;2023-02-16T14:29:16;12.90;1.00
9768;DHT22;4923;52.520;13.494;2023-02-16T14:32:14;12.90;1.00
9768;DHT22;4923;52.520;13.494;2023-02-16T14:35:12;12.90;1.00
9768;DHT22;4923;52.520;13.494;2023-02-16T14:38:01;12.90;1.00
9768;DHT22;4923;52.520;13.494;2023-02-16T14:40:52;12.90;1.00
9768;DHT22;4923;52.520;13.494;2023-02-16T14:43:42;12.80;1.00
9768;DHT22;4923;52.520;13.494;2023-02-16T14:46:41;12.70;1.00
9768;DHT22;4923;52.520;13.494;2023-02-16T14:49:49;12.70;1.00
9768;DHT22;4923;52.520;13.494;2023-02-16T14:56:21;12.60;1.00
9768;DHT22;4923;52.520;13.494;2023-02-16T14:59:20;12.50;1.00
9768;DHT22;4923;52.520;13.494;2023-02-16T15:02:24;12.50;1.00
9768;DHT22;4923;52.520;13.494;2023-02-16T15:05:16;12.40;1.00
9768;DHT22;4923;52.520;13.494;2023-02-16T15:08:10;12.40;1.00
9768;DHT22;4923;52.520;13.494;2023-02-16T15:10:57;12.30;1.00
9768;DHT22;4923;52.520;13.494;2023-02-16T15:13:46;12.30;1.00
9768;DHT22;4923;52.520;13.494;2023-02-16T15:16:39;12.30;1.00
9768;DHT22;4923;52.520;13.494;2023-02-16T15:19:28;12.30;1.00
9768;DHT22;4923;52.520;13.494;2023-02-16T15:22:19;12.30;1.00
9768;DHT22;4923;52.520;13.494;2023-02-16T15:25:19;12.30;1.00
9768;DHT22;4923;52.520;13.494;2023-02-16T15:28:18;12.30;1.00
9768;DHT22;4923;52.520;13.494;2023-02-16T15:31:13;12.30;1.00
9768;DHT22;4923;52.520;13.494;2023-02-16T15:34:05;12.30;1.00
9768;DHT22;4923;52.520;13.494;2023-02-16T15:36:52;12.30;1.00
9768;DHT22;4923;52.520;13.494;2023-02-16T15:39:39;12.20;1.00
9768;DHT22;4923;52.520;13.494;2023-02-16T15:42:27;12.20;1.00
9768;DHT22;4923;52.520;13.494;2023-02-16T15:45:28;12.20;1.00
9768;DHT22;4923;52.520;13.494;2023-02-16T15:48:25;12.10;1.00
9768;DHT22;4923;52.520;13.494;2023-02-16T15:51:15;12.00;1.00
9768;DHT22;4923;52.520;13.494;2023-02-16T15:54:05;11.90;1.00
9768;DHT22;4923;52.520;13.494;2023-02-16T15:56:54;11.90;1.00
9768;DHT22;4923;52.520;13.494;2023-02-16T15:59:43;11.80;1.00
9768;DHT22;4923;52.520;13.494;2023-02-16T16:02:34;11.70;1.00
9768;DHT22;4923;52.520;13.494;2023-02-16T16:05:25;11.60;1.00
9768;DHT22;4923;52.520;13.494;2023-02-16T16:08:13;11.50;1.00
9768;DHT22;4923;52.520;13.494;2023-02-16T16:11:02;11.50;1.00
9768;DHT22;4923;52.520;13.494;2023-02-16T16:13:49;11.30;1.00
9768;DHT22;4923;52.520;13.494;2023-02-16T16:16:36;11.20;1.00
9768;DHT22;4923;52.520;13.494;2023-02-16T16:19:31;11.10;1.00
9768;DHT22;4923;52.520;13.494;2023-02-16T16:22:32;11.00;1.00
9768;DHT22;4923;52.520;13.494;2023-02-16T16:25:36;10.90;1.00
9768;DHT22;4923;52.520;13.494;2023-02-16T16:28:34;10.80;1.00
9768;DHT22;4923;52.520;13.494;2023-02-16T16:31:31;10.70;1.00
9768;DHT22;4923;52.520;13.494;2023-02-16T16:34:31;10.60;1.00
9768;DHT22;4923;52.520;13.494;2023-02-16T16:37:25;10.50;1.00
9768;DHT22;4923;52.520;13.494;2023-02-16T16:40:22;10.50;1.00
9768;DHT22;4923;52.520;13.494;2023-02-16T16:43:16;10.40;1.00
9768;DHT22;4923;52.520;13.494;2023-02-16T16:46:12;10.40;1.00
9768;DHT22;4923;52.520;13.494;2023-02-16T16:49:03;10.40;1.00
9768;DHT22;4923;52.520;13.494;2023-02-16T16:51:51;10.40;1.00
9768;DHT22;4923;52.520;13.494;2023-02-16T16:54:38;10.30;1.00
9768;DHT22;4923;52.520;13.494;2023-02-16T16:57:26;10.20;1.00
9768;DHT22;4923;52.520;13.494;2023-02-16T17:00:15;10.10;1.00
9768;DHT22;4923;52.520;13.494;2023-02-16T17:03:03;10.10;1.00
9768;DHT22;4923;52.520;13.494;2023-02-16T17:05:51;10.00;1.00
9768;DHT22;4923;52.520;13.494;2023-02-16T17:08:38;10.00;1.00
9768;DHT22;4923;52.520;13.494;2023-02-16T17:11:28;9.90;1.00
9768;DHT22;4923;52.520;13.494;2023-02-16T17:14:18;9.90;1.00
9768;DHT22;4923;52.520;13.494;2023-02-16T17:17:06;9.90;1.00
9768;DHT22;4923;52.520;13.494;2023-02-16T17:19:56;9.90;1.00
9768;DHT22;4923;52.520;13.494;2023-02-16T17:22:43;9.80;1.00
9768;DHT22;4923;52.520;13.494;2023-02-16T17:25:32;9.80;1.00
9768;DHT22;4923;52.520;13.494;2023-02-16T17:28:19;9.80;1.00
9768;DHT22;4923;52.520;13.494;2023-02-16T17:31:08;9.80;1.00
9768;DHT22;4923;52.520;13.494;2023-02-16T17:33:55;9.80;1.00
9768;DHT22;4923;52.520;13.494;2023-02-16T17:36:42;9.80;1.00
9768;DHT22;4923;52.520;13.494;2023-02-16T17:39:29;9.80;1.00
9768;DHT22;4923;52.520;13.494;2023-02-16T17:42:16;9.80;1.00
9768;DHT22;4923;52.520;13.494;2023-02-16T17:45:03;9.80;1.00
9768;DHT22;4923;52.520;13.494;2023-02-16T17:47:52;9.80;1.00
9768;DHT22;4923;52.520;13.494;2023-02-16T17:50:39;9.80;1.00
9768;DHT22;4923;52.520;13.494;2023-02-16T17:53:26;9.80;1.00
9768;DHT22;4923;52.520;13.494;2023-02-16T17:56:15;9.70;1.00
9768;DHT22;4923;52.520;13.494;2023-02-16T17:59:02;9.70;1.00
9768;DHT22;4923;52.520;13.494;2023-02-16T18:01:49;9.70;1.00
9768;DHT22;4923;52.520;13.494;2023-02-16T18:04:37;9.70;1.00
9768;DHT22;4923;52.520;13.494;2023-02-16T18:07:26;9.70;1.00
9768;DHT22;4923;52.520;13.494;2023-02-16T18:10:17;9.70;1.00
9768;DHT22;4923;52.520;13.494;2023-02-16T18:13:05;9.80;1.00
9768;DHT22;4923;52.520;13.494;2023-02-16T18:15:54;9.80;1.00
9768;DHT22;4923;52.520;13.494;2023-02-16T18:18:41;9.80;1.00
9768;DHT22;4923;52.520;13.494;2023-02-16T18:21:29;9.80;1.00
9768;DHT22;4923;52.520;13.494;2023-02-16T18:24:16;9.70;1.00
9768;DHT22;4923;52.520;13.494;2023-02-16T18:27:03;9.70;1.00
9768;DHT22;4923;52.520;13.494;2023-02-16T18:29:50;9.70;1.00
9768;DHT22;4923;52.520;13.494;2023-02-16T18:32:37;9.80;1.00
9768;DHT22;4923;52.520;13.494;2023-02-16T18:35:24;9.70;1.00
9768;DHT22;4923;52.520;13.494;2023-02-16T18:38:12;9.70;1.00
9768;DHT22;4923;52.520;13.494;2023-02-16T18:40:59;9.80;1.00
9768;DHT22;4923;52.520;13.494;2023-02-16T18:43:46;9.70;1.00
9768;DHT22;4923;52.520;13.494;2023-02-16T18:46:33;9.70;1.00
9768;DHT22;4923;52.520;13.494;2023-02-16T18:49:19;9.70;1.00
9768;DHT22;4923;52.520;13.494;2023-02-16T18:52:06;9.70;1.00
9768;DHT22;4923;52.520;13.494;2023-02-16T18:54:55;9.60;1.00
9768;DHT22;4923;52.520;13.494;2023-02-16T18:57:41;9.60;1.00
9768;DHT22;4923;52.520;13.494;2023-02-16T19:00:29;9.50;1.00
9768;DHT22;4923;52.520;13.494;2023-02-16T19:03:16;9.50;1.00